createdAt,value
2019-03-23T00:01:44.863Z,99.43
2019-03-23T00:04:13.368Z,104.37
2019-03-23T00:06:41.848Z,97.23
2019-03-23T00:09:10.363Z,112.40
2019-03-23T00:11:38.844Z,105.80
2019-03-23T00:14:07.426Z,108.30
2019-03-23T00:16:35.906Z,105.00
2019-03-23T00:19:04.412Z,93.47
2019-03-23T00:21:32.891Z,93.20
2019-03-23T00:24:01.398Z,84.37
2019-03-23T00:26:29.877Z,87.70
2019-03-23T00:28:58.365Z,91.60
2019-03-23T00:31:26.840Z,91.90
2019-03-23T00:33:55.340Z,92.63
2019-03-23T00:36:23.822Z,97.23
2019-03-23T00:38:52.320Z,97.33
2019-03-23T00:41:20.805Z,94.30
2019-03-23T00:43:49.300Z,91.37
2019-03-23T00:46:17.774Z,95.50
2019-03-23T00:48:46.284Z,107.17
2019-03-23T00:51:14.761Z,103.03
2019-03-23T00:53:43.261Z,105.17
2019-03-23T00:56:11.734Z,99.37
2019-03-23T00:58:40.231Z,107.40
2019-03-23T01:01:08.703Z,96.43
2019-03-23T01:03:37.207Z,112.90
2019-03-23T01:06:05.753Z,105.30
2019-03-23T01:08:34.428Z,110.63
2019-03-23T01:11:02.909Z,102.90
2019-03-23T01:13:31.383Z,100.87
2019-03-23T01:15:59.874Z,96.07
2019-03-23T01:18:28.347Z,104.10
2019-03-23T01:20:56.846Z,98.53
2019-03-23T01:23:25.320Z,98.90
2019-03-23T01:25:53.926Z,93.10
2019-03-23T01:28:22.528Z,98.57
2019-03-23T01:30:51.022Z,99.80
2019-03-23T01:33:19.493Z,97.20
2019-03-23T01:35:47.985Z,94.77
2019-03-23T01:38:16.458Z,93.63
2019-03-23T01:40:44.966Z,92.73
2019-03-23T01:43:13.433Z,92.03
2019-03-23T01:45:41.938Z,105.73
2019-03-23T01:48:10.416Z,100.40
2019-03-23T01:50:38.910Z,81.67
2019-03-23T01:53:07.384Z,91.63
2019-03-23T01:55:35.955Z,86.23
2019-03-23T01:58:04.438Z,84.17
2019-03-23T02:00:32.930Z,72.70
2019-03-23T02:03:01.407Z,67.03
2019-03-23T02:05:29.910Z,60.67
2019-03-23T02:07:58.451Z,57.80
2019-03-23T02:10:26.948Z,59.97
2019-03-23T02:12:55.425Z,59.30
2019-03-23T02:15:23.918Z,52.93
2019-03-23T02:17:52.393Z,52.10
2019-03-23T02:20:20.886Z,54.60
2019-03-23T02:22:49.356Z,50.93
2019-03-23T02:25:17.862Z,51.63
2019-03-23T02:27:46.342Z,51.80
2019-03-23T02:30:14.987Z,53.30
2019-03-23T02:32:43.458Z,54.90
2019-03-23T02:35:12.232Z,52.17
2019-03-23T02:37:40.712Z,53.97
2019-03-23T02:40:12.819Z,54.03
2019-03-23T02:42:41.298Z,51.13
2019-03-23T02:45:13.771Z,58.43
2019-03-23T02:47:42.255Z,54.67
2019-03-23T02:50:11.387Z,57.00
2019-03-23T02:52:39.883Z,56.57
2019-03-23T02:55:10.206Z,59.30
2019-03-23T02:57:38.744Z,49.40
2019-03-23T03:00:12.780Z,56.47
2019-03-23T03:02:41.234Z,50.63
2019-03-23T03:05:10.068Z,52.90
2019-03-23T03:07:42.609Z,53.43
2019-03-23T03:10:11.109Z,54.43
2019-03-23T03:12:39.649Z,50.87
2019-03-23T03:15:09.395Z,41.00
2019-03-23T03:17:37.858Z,44.27
2019-03-23T03:20:08.404Z,44.73
2019-03-23T03:22:36.875Z,56.70
2019-03-23T03:25:07.411Z,61.07
2019-03-23T03:27:35.882Z,57.07
2019-03-23T03:30:06.327Z,61.57
2019-03-23T03:32:34.803Z,55.63
2019-03-23T03:35:03.375Z,63.97
2019-03-23T03:37:31.858Z,58.30
2019-03-23T03:40:00.550Z,59.07
2019-03-23T03:42:29.279Z,61.87
2019-03-23T03:44:57.754Z,60.20
2019-03-23T03:47:26.323Z,64.20
2019-03-23T03:49:54.802Z,58.17
2019-03-23T03:52:23.304Z,59.87
2019-03-23T03:54:51.888Z,62.03
2019-03-23T03:57:20.366Z,61.53
2019-03-23T03:59:48.840Z,63.47
2019-03-23T04:02:17.342Z,65.47
2019-03-23T04:04:45.816Z,62.93
2019-03-23T04:07:14.314Z,58.77
2019-03-23T04:09:42.781Z,62.57
2019-03-23T04:12:11.280Z,59.60
2019-03-23T04:14:39.752Z,53.53
2019-03-23T04:17:08.245Z,52.17
2019-03-23T04:19:36.724Z,49.90
2019-03-23T04:22:05.237Z,54.43
2019-03-23T04:24:33.688Z,50.03
2019-03-23T04:27:03.830Z,54.73
2019-03-23T04:29:32.679Z,49.47
2019-03-23T04:32:01.173Z,51.60
2019-03-23T04:34:29.642Z,53.77
2019-03-23T04:36:58.137Z,50.70
2019-03-23T04:39:26.607Z,58.67
2019-03-23T04:41:55.107Z,62.00
2019-03-23T04:44:23.580Z,59.37
2019-03-23T04:46:52.085Z,67.10
2019-03-23T04:49:20.561Z,71.63
2019-03-23T04:51:49.062Z,71.57
2019-03-23T04:54:17.530Z,77.30
2019-03-23T04:56:46.708Z,82.50
2019-03-23T04:59:15.186Z,87.13
2019-03-23T05:01:43.684Z,76.40
2019-03-23T05:04:12.165Z,76.50
2019-03-23T05:06:42.517Z,73.63
2019-03-23T05:09:10.858Z,70.00
2019-03-23T05:11:39.359Z,65.30
2019-03-23T05:14:07.833Z,64.23
2019-03-23T05:16:36.377Z,60.60
2019-03-23T05:19:04.848Z,70.50
2019-03-23T05:21:35.000Z,64.23
2019-03-23T05:24:03.473Z,61.53
2019-03-23T05:26:31.967Z,63.10
2019-03-23T05:29:00.443Z,56.27
2019-03-23T05:31:28.946Z,54.47
2019-03-23T05:33:57.422Z,55.80
2019-03-23T05:36:25.921Z,56.53
2019-03-23T05:38:54.398Z,55.93
2019-03-23T05:41:22.900Z,57.97
2019-03-23T05:43:51.382Z,52.97
2019-03-23T05:46:19.879Z,56.63
2019-03-23T05:48:48.354Z,57.23
2019-03-23T05:51:16.853Z,53.00
2019-03-23T05:53:45.328Z,57.27
2019-03-23T05:56:13.824Z,54.77
2019-03-23T05:58:42.307Z,56.73
2019-03-23T06:01:10.811Z,54.60
2019-03-23T06:03:39.283Z,53.67
2019-03-23T06:06:07.785Z,52.80
2019-03-23T06:08:36.261Z,59.50
2019-03-23T06:11:04.759Z,55.87
2019-03-23T06:13:33.242Z,56.53
2019-03-23T06:16:01.723Z,60.00
2019-03-23T06:18:30.228Z,51.33
2019-03-23T06:20:58.701Z,52.33
2019-03-23T06:23:27.213Z,58.03
2019-03-23T06:25:55.689Z,55.13
2019-03-23T06:28:24.179Z,59.20
2019-03-23T06:30:52.657Z,51.00
2019-03-23T06:33:21.167Z,53.83
2019-03-23T06:35:49.642Z,55.97
2019-03-23T06:38:18.147Z,54.00
2019-03-23T06:40:46.626Z,55.87
2019-03-23T06:43:15.125Z,50.47
2019-03-23T06:45:43.604Z,49.30
2019-03-23T06:48:12.100Z,48.57
2019-03-23T06:50:40.566Z,53.13
2019-03-23T06:53:09.071Z,52.83
2019-03-23T06:55:37.547Z,55.47
2019-03-23T06:58:06.118Z,55.23
2019-03-23T07:00:34.592Z,52.10
2019-03-23T07:03:03.093Z,53.33
2019-03-23T07:05:31.574Z,53.20
2019-03-23T07:08:00.077Z,55.10
2019-03-23T07:10:28.558Z,53.10
2019-03-23T07:12:57.061Z,54.50
2019-03-23T07:15:25.540Z,56.50
2019-03-23T07:17:54.050Z,53.98
2019-03-23T07:20:22.529Z,55.93
2019-03-23T07:22:51.037Z,55.40
2019-03-23T07:25:19.509Z,57.67
2019-03-23T07:27:48.012Z,59.90
2019-03-23T07:30:18.030Z,56.40
2019-03-23T07:32:46.532Z,56.73
2019-03-23T07:35:15.352Z,60.33
2019-03-23T07:37:43.933Z,55.00
2019-03-23T07:40:13.260Z,50.75
2019-03-23T07:42:41.895Z,51.60
2019-03-23T07:45:12.729Z,56.37
2019-03-23T07:47:41.214Z,47.75
2019-03-23T07:50:11.839Z,50.73
2019-03-23T07:52:40.348Z,47.55
2019-03-23T07:55:14.151Z,49.03
2019-03-23T07:57:42.990Z,52.07
2019-03-23T08:00:21.534Z,48.42
2019-03-23T08:02:50.101Z,48.08
2019-03-23T08:05:18.720Z,49.85
2019-03-23T08:07:47.344Z,51.05
2019-03-23T08:10:30.650Z,46.48
2019-03-23T08:12:59.443Z,54.95
2019-03-23T08:15:28.188Z,47.00
2019-03-23T08:17:57.122Z,49.20
2019-03-23T08:20:25.785Z,45.67
2019-03-23T08:22:55.251Z,45.97
2019-03-23T08:25:23.752Z,45.45
2019-03-23T08:27:52.234Z,45.00
2019-03-23T08:30:20.807Z,44.63
2019-03-23T08:32:49.287Z,43.10
2019-03-23T08:35:17.794Z,46.53
2019-03-23T08:37:46.272Z,43.52
2019-03-23T08:40:14.792Z,41.88
2019-03-23T08:42:43.280Z,44.42
2019-03-23T08:45:11.779Z,44.60
2019-03-23T08:47:40.256Z,45.38
2019-03-23T08:50:09.108Z,45.48
2019-03-23T08:52:37.587Z,40.55
2019-03-23T08:55:07.227Z,42.23
2019-03-23T08:57:35.707Z,37.63
2019-03-23T09:00:05.976Z,39.25
2019-03-23T09:02:34.447Z,36.70
2019-03-23T09:05:02.956Z,40.10
2019-03-23T09:07:31.432Z,37.40
2019-03-23T09:09:59.935Z,39.08
2019-03-23T09:12:28.415Z,35.45
2019-03-23T09:14:56.913Z,35.48
2019-03-23T09:17:25.394Z,36.35
2019-03-23T09:19:53.892Z,34.67
2019-03-23T09:22:22.365Z,33.00
2019-03-23T09:24:50.864Z,32.48
2019-03-23T09:27:19.344Z,33.02
2019-03-23T09:29:47.845Z,32.93
2019-03-23T09:32:16.327Z,34.25
2019-03-23T09:34:44.843Z,39.42
2019-03-23T09:37:13.320Z,33.02
2019-03-23T09:39:41.822Z,31.73
2019-03-23T09:42:10.296Z,31.68
2019-03-23T09:44:38.799Z,28.60
2019-03-23T09:47:07.274Z,28.57
2019-03-23T09:49:35.777Z,31.33
2019-03-23T09:52:04.323Z,28.92
2019-03-23T09:54:32.803Z,27.62
2019-03-23T09:57:01.308Z,28.90
2019-03-23T09:59:29.795Z,32.42
2019-03-23T10:01:58.299Z,34.23
2019-03-23T10:04:26.782Z,30.85
2019-03-23T10:06:55.285Z,32.88
2019-03-23T10:09:23.761Z,30.35
2019-03-23T10:11:52.270Z,32.63
2019-03-23T10:14:20.747Z,27.65
2019-03-23T10:16:49.262Z,27.13
2019-03-23T10:19:17.746Z,30.88
2019-03-23T10:21:46.257Z,24.80
2019-03-23T10:24:14.727Z,22.75
2019-03-23T10:26:43.233Z,25.35
2019-03-23T10:29:11.713Z,22.00
2019-03-23T10:31:40.216Z,18.95
2019-03-23T10:34:08.700Z,20.92
2019-03-23T10:36:37.209Z,17.65
2019-03-23T10:39:06.453Z,15.98
2019-03-23T10:41:34.958Z,15.25
2019-03-23T10:44:03.439Z,14.10
2019-03-23T10:46:31.939Z,15.38
2019-03-23T10:49:00.422Z,17.67
2019-03-23T10:51:28.918Z,19.70
2019-03-23T10:53:57.437Z,16.05
2019-03-23T10:56:25.941Z,15.83
2019-03-23T10:58:54.419Z,18.00
2019-03-23T11:01:22.918Z,15.20
2019-03-23T11:03:51.397Z,14.63
2019-03-23T11:06:19.899Z,14.75
2019-03-23T11:08:48.388Z,12.00
2019-03-23T11:11:16.889Z,14.38
2019-03-23T11:13:45.364Z,7.58
2019-03-23T11:16:13.830Z,7.20
2019-03-23T11:18:42.331Z,8.85
2019-03-23T11:21:10.802Z,7.65
2019-03-23T11:23:39.295Z,7.72
2019-03-23T11:26:07.759Z,8.40
2019-03-23T11:28:36.253Z,8.33
2019-03-23T11:31:04.794Z,11.05
2019-03-23T11:33:33.294Z,7.87
2019-03-23T11:36:01.762Z,9.40
2019-03-23T11:38:30.299Z,9.15
2019-03-23T11:40:58.723Z,9.10
2019-03-23T11:43:27.224Z,9.03
2019-03-23T11:45:55.705Z,11.83
2019-03-23T11:48:24.199Z,10.13
2019-03-23T11:50:52.677Z,10.88
2019-03-23T11:53:21.166Z,11.25
2019-03-23T11:55:49.637Z,13.18
2019-03-23T11:58:18.135Z,12.00
2019-03-23T12:00:46.615Z,11.53
2019-03-23T12:03:15.130Z,10.85
2019-03-23T12:05:43.809Z,12.10
2019-03-23T12:08:12.292Z,9.23
2019-03-23T12:10:40.775Z,13.03
2019-03-23T12:13:09.278Z,9.55
2019-03-23T12:15:37.749Z,9.00
2019-03-23T12:18:06.247Z,8.00
2019-03-23T12:20:34.725Z,9.93
2019-03-23T12:23:03.235Z,11.18
2019-03-23T12:25:31.703Z,8.15
2019-03-23T12:28:00.198Z,7.42
2019-03-23T12:30:28.668Z,7.55
2019-03-23T12:32:57.158Z,6.28
2019-03-23T12:35:25.632Z,5.87
2019-03-23T12:37:54.127Z,7.97
2019-03-23T12:40:22.603Z,6.20
2019-03-23T12:42:52.607Z,6.33
2019-03-23T12:45:21.081Z,5.92
2019-03-23T12:47:49.551Z,11.65
2019-03-23T12:50:18.046Z,8.63
2019-03-23T12:52:46.515Z,8.70
2019-03-23T12:55:15.008Z,7.80
2019-03-23T12:57:43.476Z,6.45
2019-03-23T13:00:15.118Z,5.33
2019-03-23T13:02:43.962Z,10.85
2019-03-23T13:05:12.635Z,9.23
2019-03-23T13:07:41.194Z,8.88
2019-03-23T13:10:14.467Z,9.38
2019-03-23T13:12:43.074Z,7.45
2019-03-23T13:15:16.436Z,7.37
2019-03-23T13:17:44.907Z,6.08
2019-03-23T13:20:13.864Z,5.83
2019-03-23T13:22:42.307Z,5.35
2019-03-23T13:25:11.042Z,8.75
2019-03-23T13:27:39.510Z,6.53
2019-03-23T13:30:13.757Z,5.62
2019-03-23T13:32:42.221Z,5.25
2019-03-23T13:35:10.779Z,7.03
2019-03-23T13:37:39.315Z,7.15
2019-03-23T13:40:11.104Z,6.35
2019-03-23T13:42:39.574Z,6.87
2019-03-23T13:45:08.707Z,8.83
2019-03-23T13:47:37.547Z,6.95
2019-03-23T13:50:06.883Z,6.65
2019-03-23T13:52:35.355Z,5.87
2019-03-23T13:55:04.790Z,6.35
2019-03-23T13:57:33.254Z,5.78
2019-03-23T14:00:01.758Z,5.80
2019-03-23T14:02:30.220Z,5.40
2019-03-23T14:04:58.715Z,5.87
2019-03-23T14:07:27.186Z,8.65
2019-03-23T14:09:55.686Z,6.67
2019-03-23T14:12:24.163Z,8.20
2019-03-23T14:14:52.651Z,7.10
2019-03-23T14:17:21.128Z,5.30
2019-03-23T14:19:49.614Z,6.47
2019-03-23T14:22:18.084Z,5.83
2019-03-23T14:24:46.575Z,7.03
2019-03-23T14:27:15.060Z,6.35
2019-03-23T14:29:45.430Z,5.60
2019-03-23T14:32:13.754Z,8.08
2019-03-23T14:34:42.220Z,5.08
2019-03-23T14:37:10.717Z,16.15
2019-03-23T14:39:39.191Z,14.70
2019-03-23T14:42:07.685Z,26.77
2019-03-23T14:44:36.153Z,6.83
2019-03-23T14:47:04.657Z,8.93
2019-03-23T14:49:33.133Z,8.68
2019-03-23T14:52:01.696Z,8.48
2019-03-23T14:54:30.174Z,10.63
2019-03-23T14:56:58.685Z,12.82
2019-03-23T14:59:27.239Z,8.65
2019-03-23T15:01:55.740Z,7.12
2019-03-23T15:04:24.213Z,9.58
2019-03-23T15:06:52.706Z,9.05
2019-03-23T15:09:21.173Z,9.15
2019-03-23T15:11:49.702Z,10.30
2019-03-23T15:14:18.182Z,10.10
2019-03-23T15:16:46.692Z,19.77
2019-03-23T15:19:15.705Z,20.68
2019-03-23T15:21:44.346Z,8.75
2019-03-23T15:24:12.824Z,11.18
2019-03-23T15:26:41.319Z,8.90
2019-03-23T15:29:09.802Z,15.95
2019-03-23T15:31:38.303Z,8.90
2019-03-23T15:34:06.854Z,13.58
2019-03-23T15:36:35.353Z,10.53
2019-03-23T15:39:05.700Z,11.93
2019-03-23T15:41:34.199Z,8.43
2019-03-23T15:44:02.736Z,10.55
2019-03-23T15:46:31.245Z,19.15
2019-03-23T15:48:59.718Z,13.13
2019-03-23T15:51:28.219Z,10.45
2019-03-23T15:53:56.686Z,10.13
2019-03-23T15:56:25.179Z,9.73
2019-03-23T15:58:53.651Z,11.12
2019-03-23T16:01:23.280Z,10.48
2019-03-23T16:03:51.811Z,11.95
2019-03-23T16:06:20.312Z,15.13
2019-03-23T16:08:48.792Z,19.12
2019-03-23T16:11:17.301Z,40.03
2019-03-23T16:13:45.810Z,15.95
2019-03-23T16:16:14.307Z,13.03
2019-03-23T16:18:42.801Z,10.88
2019-03-23T16:21:11.276Z,11.48
2019-03-23T16:23:39.777Z,12.43
2019-03-23T16:26:08.262Z,13.03
2019-03-23T16:28:36.758Z,9.98
2019-03-23T16:31:05.270Z,24.20
2019-03-23T16:33:33.775Z,17.30
2019-03-23T16:36:03.606Z,14.15
2019-03-23T16:38:32.228Z,9.65
2019-03-23T16:41:00.713Z,14.95
2019-03-23T16:43:29.211Z,11.57
2019-03-23T16:45:57.689Z,11.68
2019-03-23T16:48:26.193Z,13.30
2019-03-23T16:50:54.697Z,11.30
2019-03-23T16:53:23.336Z,13.93
2019-03-23T16:55:51.805Z,13.58
2019-03-23T16:58:20.311Z,13.00
2019-03-23T17:00:48.777Z,16.17
2019-03-23T17:03:17.269Z,14.33
2019-03-23T17:05:45.823Z,15.48
2019-03-23T17:08:14.319Z,11.68
2019-03-23T17:10:42.798Z,12.70
2019-03-23T17:13:11.319Z,15.95
2019-03-23T17:15:39.775Z,17.15
2019-03-23T17:18:08.349Z,19.07
2019-03-23T17:20:36.825Z,15.55
2019-03-23T17:23:05.324Z,15.05
2019-03-23T17:25:33.801Z,17.17
2019-03-23T17:28:02.302Z,19.07
2019-03-23T17:30:30.854Z,15.58
2019-03-23T17:32:59.362Z,19.12
2019-03-23T17:35:27.823Z,17.95
2019-03-23T17:37:56.322Z,15.93
2019-03-23T17:40:24.797Z,16.52
2019-03-23T17:42:53.309Z,17.35
2019-03-23T17:45:21.786Z,21.90
2019-03-23T17:47:50.298Z,19.50
2019-03-23T17:50:18.778Z,21.27
2019-03-23T17:52:47.701Z,31.15
2019-03-23T17:55:16.195Z,33.88
2019-03-23T17:57:44.672Z,33.80
2019-03-23T18:00:13.882Z,28.47
2019-03-23T18:02:42.352Z,29.20
2019-03-23T18:05:12.290Z,39.53
2019-03-23T18:07:40.875Z,50.60
2019-03-23T18:10:10.109Z,44.00
2019-03-23T18:12:38.725Z,50.52
2019-03-23T18:15:11.558Z,43.30
2019-03-23T18:17:40.147Z,46.90
2019-03-23T18:20:09.375Z,50.98
2019-03-23T18:22:37.856Z,53.00
2019-03-23T18:25:07.309Z,50.30
2019-03-23T18:27:35.791Z,65.67
2019-03-23T18:30:07.674Z,60.95
2019-03-23T18:32:36.222Z,65.00
2019-03-23T18:35:06.559Z,80.03
2019-03-23T18:37:35.038Z,90.70
2019-03-23T18:40:05.277Z,89.13
2019-03-23T18:42:35.268Z,90.65
2019-03-23T18:45:04.747Z,87.70
2019-03-23T18:47:33.223Z,87.35
2019-03-23T18:50:01.725Z,88.43
2019-03-23T18:52:30.194Z,87.33
2019-03-23T18:54:58.691Z,83.37
2019-03-23T18:57:27.174Z,78.07
2019-03-23T18:59:55.678Z,85.70
2019-03-23T19:02:24.294Z,83.17
2019-03-23T19:04:52.802Z,78.70
2019-03-23T19:07:21.298Z,87.77
2019-03-23T19:09:49.921Z,82.77
2019-03-23T19:12:18.405Z,81.23
2019-03-23T19:14:46.931Z,81.35
2019-03-23T19:17:15.420Z,80.38
2019-03-23T19:19:43.906Z,77.58
2019-03-23T19:22:12.388Z,74.67
2019-03-23T19:24:40.893Z,78.25
2019-03-23T19:27:09.937Z,73.67
2019-03-23T19:29:38.446Z,75.60
2019-03-23T19:32:06.991Z,73.67
2019-03-23T19:34:35.508Z,79.10
2019-03-23T19:37:03.980Z,80.72
2019-03-23T19:39:32.487Z,83.90
2019-03-23T19:42:00.952Z,86.57
2019-03-23T19:44:29.453Z,91.53
2019-03-23T19:46:57.934Z,94.23
2019-03-23T19:49:26.413Z,95.95
2019-03-23T19:51:54.919Z,100.40
2019-03-23T19:54:23.395Z,106.50
2019-03-23T19:56:51.902Z,100.83
2019-03-23T19:59:20.385Z,103.00
2019-03-23T20:01:49.101Z,101.20
2019-03-23T20:04:17.577Z,96.10
2019-03-23T20:06:46.734Z,98.53
2019-03-23T20:09:15.452Z,93.77
2019-03-23T20:11:44.262Z,89.70
2019-03-23T20:14:13.116Z,96.17
2019-03-23T20:16:46.001Z,86.73
2019-03-23T20:19:14.613Z,93.37
2019-03-23T20:21:43.150Z,94.53
2019-03-23T20:24:12.201Z,85.20
2019-03-23T20:26:41.909Z,91.63
2019-03-23T20:29:11.942Z,92.47
2019-03-23T20:31:41.289Z,89.00
2019-03-23T20:34:16.248Z,81.57
2019-03-23T20:36:48.618Z,86.80
2019-03-23T20:39:20.231Z,86.67
2019-03-23T20:41:50.429Z,85.93
2019-03-23T20:44:21.946Z,79.37
2019-03-23T20:46:50.760Z,81.67
2019-03-23T20:49:19.510Z,76.00
2019-03-23T20:51:48.220Z,73.97
2019-03-23T20:54:16.761Z,78.17
2019-03-23T20:56:45.322Z,73.80
2019-03-23T20:59:13.800Z,71.60
2019-03-23T21:01:42.301Z,74.50
2019-03-23T21:04:10.782Z,72.00
2019-03-23T21:06:39.330Z,71.83
2019-03-23T21:09:08.116Z,68.97
2019-03-23T21:11:36.727Z,66.07
2019-03-23T21:14:05.309Z,71.17
2019-03-23T21:16:33.818Z,75.53
2019-03-23T21:19:02.371Z,77.27
2019-03-23T21:21:30.898Z,75.33
2019-03-23T21:23:59.379Z,78.73
2019-03-23T21:26:27.878Z,77.27
2019-03-23T21:28:56.357Z,71.87
2019-03-23T21:31:24.866Z,75.63
2019-03-23T21:33:53.347Z,74.33
2019-03-23T21:36:21.858Z,72.07
2019-03-23T21:38:50.336Z,73.57
2019-03-23T21:41:18.842Z,72.00
2019-03-23T21:43:47.322Z,66.63
2019-03-23T21:46:15.826Z,68.77
2019-03-23T21:48:44.302Z,72.93
2019-03-23T21:51:12.789Z,71.93
2019-03-23T21:53:41.310Z,67.57
2019-03-23T21:56:09.787Z,66.33
2019-03-23T21:58:38.287Z,58.70
2019-03-23T22:01:06.760Z,56.83
2019-03-23T22:03:35.260Z,58.43
2019-03-23T22:06:03.976Z,54.77
2019-03-23T22:08:32.482Z,56.63
2019-03-23T22:11:00.956Z,60.53
2019-03-23T22:13:29.476Z,59.13
2019-03-23T22:15:57.945Z,56.53
2019-03-23T22:18:26.487Z,59.30
2019-03-23T22:20:54.959Z,61.07
2019-03-23T22:23:23.465Z,63.73
2019-03-23T22:25:51.946Z,64.47
2019-03-23T22:28:20.512Z,61.80
2019-03-23T22:30:48.989Z,63.17
2019-03-23T22:33:17.496Z,68.10
2019-03-23T22:35:45.974Z,55.17
2019-03-23T22:38:14.475Z,62.27
2019-03-23T22:40:42.950Z,64.67
2019-03-23T22:43:11.450Z,64.87
2019-03-23T22:45:39.928Z,61.17
2019-03-23T22:48:08.423Z,61.00
2019-03-23T22:50:36.904Z,65.27
2019-03-23T22:53:05.405Z,61.20
2019-03-23T22:55:33.891Z,64.03
2019-03-23T22:58:02.396Z,62.87
2019-03-23T23:00:41.968Z,63.87
2019-03-23T23:03:10.704Z,67.80
2019-03-23T23:05:39.269Z,71.53
2019-03-23T23:08:07.767Z,60.47
2019-03-23T23:10:36.617Z,57.23
2019-03-23T23:13:05.186Z,66.70
2019-03-23T23:15:33.668Z,61.07
2019-03-23T23:18:02.167Z,63.33
2019-03-23T23:20:30.645Z,57.30
2019-03-23T23:22:59.151Z,52.97
2019-03-23T23:25:27.624Z,54.50
2019-03-23T23:27:56.127Z,54.13
2019-03-23T23:30:24.603Z,55.33
2019-03-23T23:32:53.108Z,54.80
2019-03-23T23:35:21.589Z,52.30
2019-03-23T23:37:50.100Z,54.23
2019-03-23T23:40:18.575Z,57.80
2019-03-23T23:42:47.080Z,63.27
2019-03-23T23:45:16.106Z,62.53
2019-03-23T23:47:44.650Z,62.93
2019-03-23T23:50:13.212Z,69.93
2019-03-23T23:52:41.690Z,66.47
2019-03-23T23:55:10.334Z,65.83
2019-03-23T23:57:38.808Z,66.03
